Time;durP1;ratioP1;P1;durP2;ratioP2;P2;SDS_P1;SDS_P2;PMS_P1;PMS_P2;Temp;Humidity;BMP_temperature;BMP_pressure;BME280_temperature;BME280_humidity;BME280_pressure;Samples;Min_cycle;Max_cycle;Signal;HPM_P1;HPM_P2
2020/12/31 00:00:03;;;;;;;7.75;1.85;;;;;;;8.71;83.08;99041.83;1777474;78;22633;-60
2020/12/31 00:02:33;;;;;;;13.22;3.05;;;;;;;8.74;83.10;99038.13;1779542;78;21605;-62
2020/12/31 00:05:01;;;;;;;6.08;2.75;;;;;;;8.73;83.14;99038.59;1776178;79;21225;-59
2020/12/31 00:07:28;;;;;;;15.95;3.83;;;;;;;8.72;83.15;99042.22;1773294;78;21662;-59
2020/12/31 00:09:55;;;;;;;14.38;3.50;;;;;;;8.69;83.20;99045.52;1734915;80;21269;-57
2020/12/31 00:12:23;;;;;;;14.10;3.10;;;;;;;8.68;83.25;99045.12;1759560;80;21209;-60
2020/12/31 00:16:03;;;;;;;12.67;4.20;;;;;;;8.71;83.35;99043.64;1746441;79;23071;-57
2020/12/31 00:18:30;;;;;;;10.90;3.30;;;;;;;8.66;83.38;99043.02;1739297;80;21036;-60
2020/12/31 00:20:58;;;;;;;11.50;4.20;;;;;;;8.65;83.45;99043.49;1739160;80;22724;-57
2020/12/31 00:23:25;;;;;;;11.35;3.80;;;;;;;8.64;83.53;99044.44;1743178;80;21930;-57
2020/12/31 00:25:53;;;;;;;9.38;4.00;;;;;;;8.64;83.59;99043.56;1738568;80;21179;-59
2020/12/31 00:28:21;;;;;;;10.10;3.90;;;;;;;8.64;83.67;99040.88;1735178;80;21186;-58
2020/12/31 00:30:48;;;;;;;12.55;4.85;;;;;;;8.64;83.71;99040.88;1737216;80;21187;-58
2020/12/31 00:33:18;;;;;;;20.00;4.42;;;;;;;8.66;83.74;99037.66;1739970;80;21404;-58
2020/12/31 00:35:49;;;;;;;15.38;6.03;;;;;;;8.66;83.76;99045.70;1739371;80;21219;-60
2020/12/31 00:38:17;;;;;;;10.95;5.58;;;;;;;8.65;83.79;99043.49;1740100;80;21334;-59
2020/12/31 00:40:44;;;;;;;8.78;4.45;;;;;;;8.65;83.85;99048.86;1736375;80;21181;-59
2020/12/31 00:43:11;;;;;;;12.60;4.87;;;;;;;8.65;83.86;99042.16;1739527;80;21180;-60
2020/12/31 00:45:38;;;;;;;11.50;4.83;;;;;;;8.66;83.84;99050.59;1736362;80;21205;-57
2020/12/31 00:48:53;;;;;;;17.40;5.43;;;;;;;8.71;83.90;99048.53;1794850;77;22618;-57
2020/12/31 00:51:20;;;;;;;10.03;5.17;;;;;;;8.67;83.89;99047.45;1769740;78;21514;-57
2020/12/31 00:53:48;;;;;;;11.85;5.45;;;;;;;8.63;83.93;99044.04;1765297;78;22081;-58
2020/12/31 00:56:17;;;;;;;11.12;4.47;;;;;;;8.64;83.94;99048.94;1766994;78;21403;-58
2020/12/31 01:01:10;;;;;;;14.97;5.73;;;;;;;8.68;83.94;99044.66;1793611;77;22599;-58
2020/12/31 01:03:38;;;;;;;9.03;4.72;;;;;;;8.62;83.98;99050.82;1767604;78;21164;-57
2020/12/31 01:06:05;;;;;;;11.88;4.58;;;;;;;8.63;83.96;99047.19;1765344;78;21596;-60
2020/12/31 01:08:32;;;;;;;16.67;4.87;;;;;;;8.64;83.93;99048.94;1750930;78;21348;-61
2020/12/31 01:11:01;;;;;;;12.45;4.50;;;;;;;8.64;83.94;99042.22;1745705;80;21179;-58
2020/12/31 01:13:28;;;;;;;9.58;4.03;;;;;;;8.65;83.96;99043.97;1746230;80;22280;-59
2020/12/31 01:15:55;;;;;;;7.55;4.03;;;;;;;8.65;83.93;99042.16;1747316;80;21225;-58
2020/12/31 01:18:22;;;;;;;8.85;4.33;;;;;;;8.67;83.93;99051.47;1747488;80;21787;-59
2020/12/31 01:20:50;;;;;;;15.48;5.03;;;;;;;8.67;83.88;99048.31;1742791;80;22016;-58
2020/12/31 01:23:17;;;;;;;9.98;4.37;;;;;;;8.69;83.85;99048.20;1744417;80;21214;-60
2020/12/31 01:25:44;;;;;;;17.62;6.50;;;;;;;8.67;83.84;99042.08;1746715;80;21222;-58
2020/12/31 01:28:11;;;;;;;17.23;6.72;;;;;;;8.66;83.85;99049.73;1746231;80;21175;-58
2020/12/31 01:30:38;;;;;;;11.68;5.33;;;;;;;8.66;83.84;99052.41;1746577;80;22306;-58
2020/12/31 01:35:08;;;;;;;15.83;6.03;;;;;;;8.68;83.82;99048.68;1787356;77;23163;-58
2020/12/31 01:37:35;;;;;;;15.98;5.67;;;;;;;8.64;83.86;99047.59;1765428;78;21024;-58
2020/12/31 01:40:03;;;;;;;14.33;5.37;;;;;;;8.64;83.88;99046.25;1764911;78;21377;-56
2020/12/31 01:42:30;;;;;;;10.78;4.72;;;;;;;8.64;83.91;99048.46;1761097;78;21219;-59
2020/12/31 01:44:58;;;;;;;9.93;4.53;;;;;;;8.66;83.94;99049.73;1761466;78;21191;-57
2020/12/31 01:47:25;;;;;;;15.65;5.97;;;;;;;8.68;83.97;99049.15;1768235;78;21650;-58
2020/12/31 01:49:53;;;;;;;13.95;6.58;;;;;;;8.69;83.95;99050.89;1765152;78;21036;-59
2020/12/31 01:52:20;;;;;;;12.43;6.10;;;;;;;8.68;84.00;99043.78;1764524;78;21210;-60
2020/12/31 01:54:47;;;;;;;11.35;5.95;;;;;;;8.67;84.00;99036.71;1765297;78;21198;-58
2020/12/31 01:57:14;;;;;;;8.68;4.50;;;;;;;8.67;84.00;99038.92;1759864;78;21198;-59
2020/12/31 01:59:42;;;;;;;10.82;4.67;;;;;;;8.66;84.02;99038.53;1710325;81;21735;-58
2020/12/31 02:03:33;;;;;;;10.67;4.77;;;;;;;8.71;84.12;99038.27;1753320;78;22599;-56
2020/12/31 02:06:00;;;;;;;17.75;5.20;;;;;;;8.66;84.13;99039.00;1724134;80;21165;-58
2020/12/31 02:08:28;;;;;;;10.98;4.72;;;;;;;8.68;84.17;99034.39;1706489;80;21433;-57
2020/12/31 02:10:55;;;;;;;7.72;4.50;;;;;;;8.69;84.19;99026.74;1706692;82;21261;-59
2020/12/31 02:13:23;;;;;;;13.05;5.37;;;;;;;8.71;84.21;99023.52;1633494;85;21152;-59
2020/12/31 02:15:50;;;;;;;13.00;5.33;;;;;;;8.72;84.19;99029.28;1664994;84;21079;-59
2020/12/31 02:18:17;;;;;;;8.98;5.85;;;;;;;8.70;84.20;99021.30;1663900;84;21076;-58
2020/12/31 02:20:46;;;;;;;12.75;4.83;;;;;;;8.71;84.23;99019.48;1661859;84;21496;-57
2020/12/31 02:23:13;;;;;;;14.20;5.00;;;;;;;8.71;84.22;99021.70;1661399;84;21254;-58
2020/12/31 02:25:40;;;;;;;10.60;4.78;;;;;;;8.72;84.26;99015.39;1662477;84;21199;-58
2020/12/31 02:28:08;;;;;;;8.18;4.60;;;;;;;8.73;84.26;99011.77;1663135;84;21613;-57
2020/12/31 02:30:35;;;;;;;12.18;6.20;;;;;;;8.73;84.35;99014.45;1703388;82;21191;-60
2020/12/31 02:33:02;;;;;;;9.60;5.25;;;;;;;8.72;84.42;99007.34;1698224;82;21384;-60
2020/12/31 02:35:31;;;;;;;13.32;6.25;;;;;;;8.72;84.45;99008.69;1697977;82;21554;-60
2020/12/31 02:37:59;;;;;;;8.85;4.42;;;;;;;8.73;84.47;99005.53;1701224;82;21162;-58
2020/12/31 02:40:26;;;;;;;7.92;4.92;;;;;;;8.75;84.52;99007.66;1697650;82;21666;-61
2020/12/31 02:42:53;;;;;;;9.60;5.55;;;;;;;8.74;84.54;99009.95;1703038;82;21184;-59
2020/12/31 02:45:21;;;;;;;12.75;6.83;;;;;;;8.70;84.60;99005.20;1699998;82;21617;-59
2020/12/31 02:47:49;;;;;;;8.38;5.78;;;;;;;8.69;84.64;99013.33;1698515;82;21195;-58
2020/12/31 02:50:16;;;;;;;8.38;5.15;;;;;;;8.68;84.66;99015.61;1702784;82;21166;-57
2020/12/31 02:52:43;;;;;;;8.63;4.67;;;;;;;8.66;84.68;99020.22;1697174;82;21231;-57
2020/12/31 02:55:10;;;;;;;14.85;6.22;;;;;;;8.63;84.75;99014.53;1695409;82;21546;-58
2020/12/31 03:00:10;;;;;;;9.43;5.53;;;;;;;8.66;84.86;99004.98;1790109;77;22438;-57
2020/12/31 03:02:37;;;;;;;12.35;6.03;;;;;;;8.60;84.92;99000.39;1762234;78;21494;-58
2020/12/31 03:05:05;;;;;;;9.25;5.50;;;;;;;8.58;84.99;99003.18;1771450;78;22284;-58
2020/12/31 03:07:32;;;;;;;9.65;5.30;;;;;;;8.59;85.00;99002.20;1759987;78;21466;-61
2020/12/31 03:09:59;;;;;;;5.97;3.95;;;;;;;8.60;85.02;98995.90;1757688;80;21255;-62
2020/12/31 03:12:27;;;;;;;9.90;4.78;;;;;;;8.60;85.04;98999.92;1754167;80;21200;-62
2020/12/31 03:14:54;;;;;;;10.13;6.00;;;;;;;8.60;85.05;98997.23;1756622;80;21219;-62
2020/12/31 03:17:21;;;;;;;10.65;4.28;;;;;;;8.59;85.02;98988.80;1756547;80;22195;-60
2020/12/31 03:19:48;;;;;;;10.68;5.10;;;;;;;8.58;85.04;98982.19;1753242;80;21394;-61
2020/12/31 03:22:16;;;;;;;8.73;3.95;;;;;;;8.58;85.07;98975.48;1755509;80;21175;-62
2020/12/31 03:24:43;;;;;;;6.62;4.65;;;;;;;8.60;85.09;98980.27;1755520;80;21453;-62
2020/12/31 03:27:10;;;;;;;11.57;5.87;;;;;;;8.60;85.06;98978.93;1705525;82;21771;-62
2020/12/31 03:29:37;;;;;;;8.63;5.42;;;;;;;8.57;85.06;98981.33;1692945;83;21620;-59
2020/12/31 03:32:05;;;;;;;14.40;6.58;;;;;;;8.55;85.09;98978.32;1719809;81;21194;-58
2020/12/31 03:34:32;;;;;;;10.65;6.60;;;;;;;8.52;85.10;98980.67;1700899;83;21209;-59
2020/12/31 03:36:59;;;;;;;14.05;6.80;;;;;;;8.52;85.08;98980.67;1720713;81;21199;-59
2020/12/31 03:39:27;;;;;;;7.08;6.00;;;;;;;8.50;85.13;98979.91;1718749;81;21239;-58
2020/12/31 03:41:54;;;;;;;15.43;7.50;;;;;;;8.50;85.15;98973.68;1723364;81;21220;-58
2020/12/31 03:44:21;;;;;;;13.80;7.20;;;;;;;8.49;85.17;98966.58;1722874;81;22020;-61
2020/12/31 03:46:48;;;;;;;11.97;5.80;;;;;;;8.50;85.21;98966.50;1723098;81;21191;-60
2020/12/31 03:49:15;;;;;;;11.12;7.10;;;;;;;8.52;85.20;98969.95;1710094;82;21597;-59
2020/12/31 03:51:42;;;;;;;14.93;7.17;;;;;;;8.53;85.18;98970.34;1699006;83;21252;-59
2020/12/31 03:54:09;;;;;;;12.75;7.65;;;;;;;8.55;85.13;98970.27;1694810;83;21224;-58
2020/12/31 03:56:36;;;;;;;13.85;8.65;;;;;;;8.51;85.11;98968.20;1704564;82;21239;-58
2020/12/31 03:59:04;;;;;;;10.18;5.58;;;;;;;8.46;85.13;98968.94;1686969;83;21797;-61
2020/12/31 04:01:32;;;;;;;10.75;7.10;;;;;;;8.47;85.13;98972.48;1740912;80;21108;-58
2020/12/31 04:03:59;;;;;;;6.87;5.03;;;;;;;8.44;85.10;98976.19;1685786;83;21173;-56
2020/12/31 04:06:28;;;;;;;11.85;5.40;;;;;;;8.42;85.11;98969.19;1736402;80;21616;-60
2020/12/31 04:08:55;;;;;;;10.63;5.58;;;;;;;8.41;85.11;98972.81;1739624;80;21492;-59
2020/12/31 04:11:22;;;;;;;10.48;5.47;;;;;;;8.39;85.04;98977.38;1739729;80;21124;-63
2020/12/31 04:13:49;;;;;;;9.35;5.10;;;;;;;8.38;85.03;98976.98;1739496;80;21132;-57
2020/12/31 04:16:17;;;;;;;8.98;6.17;;;;;;;8.39;85.04;98989.45;1687520;83;21567;-60
2020/12/31 04:18:44;;;;;;;10.58;5.90;;;;;;;8.40;85.02;98985.83;1738112;80;21673;-58
2020/12/31 04:21:11;;;;;;;10.70;5.70;;;;;;;8.40;85.00;98968.39;1737816;80;21247;-58
2020/12/31 04:23:39;;;;;;;11.90;6.80;;;;;;;8.40;84.93;98971.95;1736848;80;21199;-57
2020/12/31 04:26:11;;;;;;;14.00;6.80;;;;;;;8.40;84.86;98979.99;1742857;80;21532;-58
2020/12/31 04:28:38;;;;;;;21.25;8.40;;;;;;;8.40;84.86;98988.03;1742195;80;21623;-57
2020/12/31 04:31:05;;;;;;;10.82;7.45;;;;;;;8.41;84.84;98989.77;1739949;80;21220;-61
2020/12/31 04:33:32;;;;;;;13.25;8.45;;;;;;;8.41;84.83;98998.30;1736185;80;21930;-57
2020/12/31 04:36:00;;;;;;;13.93;6.75;;;;;;;8.39;84.77;99001.52;1738248;80;21163;-58
2020/12/31 04:38:27;;;;;;;11.50;7.12;;;;;;;8.39;84.76;99005.54;1734841;80;21594;-56
2020/12/31 04:40:54;;;;;;;17.70;8.13;;;;;;;8.39;84.71;98998.36;1737228;80;21176;-58
2020/12/31 04:43:22;;;;;;;11.43;7.17;;;;;;;8.37;84.67;99001.59;1738907;80;21343;-59
2020/12/31 04:45:49;;;;;;;12.43;7.83;;;;;;;8.38;84.65;99003.80;1739778;80;21133;-57
2020/12/31 04:48:30;;;;;;;14.03;7.33;;;;;;;8.37;84.57;99019.48;1689518;83;22136;-59
2020/12/31 04:50:58;;;;;;;12.37;7.20;;;;;;;8.37;84.54;99020.36;1741858;80;21232;-61
2020/12/31 04:53:25;;;;;;;16.60;8.35;;;;;;;8.37;84.51;99031.09;1736756;80;21105;-58
2020/12/31 04:55:52;;;;;;;14.38;9.75;;;;;;;8.37;84.43;99023.05;1743308;80;22206;-57
2020/12/31 04:58:19;;;;;;;18.00;10.18;;;;;;;8.35;84.36;99015.54;1739565;80;21180;-58
2020/12/31 05:00:47;;;;;;;15.43;8.20;;;;;;;8.33;84.30;99018.80;1737959;80;21283;-58
2020/12/31 05:03:16;;;;;;;15.53;9.18;;;;;;;8.32;84.27;99027.31;1739819;80;21188;-58
2020/12/31 05:05:44;;;;;;;12.05;8.75;;;;;;;8.31;84.26;99026.91;1743748;80;21196;-59
2020/12/31 05:08:11;;;;;;;13.15;7.20;;;;;;;8.30;84.22;99022.45;1741631;80;22355;-59
2020/12/31 05:10:38;;;;;;;11.68;6.42;;;;;;;8.29;84.09;99031.44;1735058;80;21178;-58
2020/12/31 05:13:07;;;;;;;16.27;8.30;;;;;;;8.29;84.08;99024.74;1738502;80;21571;-58
2020/12/31 05:15:40;;;;;;;15.90;8.13;;;;;;;8.30;84.03;99034.52;1740564;80;21228;-59
2020/12/31 05:18:25;;;;;;;15.88;8.55;;;;;;;8.31;83.94;99030.94;1736251;80;21575;-59
2020/12/31 05:20:55;;;;;;;;;;;;;;;8.28;83.83;99037.75;1739093;80;22594;-58
2020/12/31 05:23:24;;;;;;;15.98;7.12;;;;;;;8.25;83.83;99041.91;1740089;80;20459;-58
2020/12/31 05:25:54;;;;;;;13.10;8.03;;;;;;;8.23;83.73;99042.48;1739355;80;21179;-58
2020/12/31 05:28:27;;;;;;;13.05;6.80;;;;;;;8.22;83.65;99042.55;1736890;80;21207;-58
2020/12/31 05:31:00;;;;;;;10.43;7.62;;;;;;;8.19;83.64;99044.91;1734898;80;21577;-60
2020/12/31 05:33:33;;;;;;;13.62;6.78;;;;;;;8.19;83.72;99039.55;1736567;80;21026;-59
2020/12/31 05:36:25;;;;;;;10.63;7.60;;;;;;;8.18;83.67;99049.87;1737333;80;21136;-59
2020/12/31 05:39:00;;;;;;;17.23;8.10;;;;;;;8.19;83.69;99055.63;1738319;80;21133;-59
2020/12/31 05:41:31;;;;;;;16.70;7.78;;;;;;;8.20;83.64;99049.33;1744087;80;21108;-61
2020/12/31 05:44:06;;;;;;;11.50;8.00;;;;;;;8.22;83.62;99055.96;1738307;80;21127;-61
2020/12/31 05:46:36;;;;;;;16.05;8.88;;;;;;;8.20;83.62;99055.16;1742460;80;21370;-59
2020/12/31 05:49:09;;;;;;;14.75;8.48;;;;;;;8.18;83.59;99051.21;1738059;80;21191;-59
2020/12/31 05:51:40;;;;;;;15.75;8.45;;;;;;;8.20;83.56;99049.33;1740512;80;21602;-59
2020/12/31 05:54:13;;;;;;;10.10;6.72;;;;;;;8.22;83.57;99068.03;1738221;80;21205;-58
2020/12/31 05:56:44;;;;;;;13.28;6.97;;;;;;;8.20;83.54;99061.39;1707956;80;21192;-60
2020/12/31 05:59:26;;;;;;;11.15;7.65;;;;;;;8.20;83.48;99061.86;1737295;80;21260;-59
2020/12/31 06:01:59;;;;;;;15.93;7.67;;;;;;;8.18;83.49;99065.08;1745934;80;21199;-59
2020/12/31 06:04:53;;;;;;;12.85;7.47;;;;;;;8.19;83.50;99072.19;1692011;83;21203;-58
2020/12/31 06:07:29;;;;;;;11.95;8.43;;;;;;;8.18;83.46;99072.66;1665978;83;21179;-59
2020/12/31 06:10:05;;;;;;;13.98;7.67;;;;;;;8.16;83.41;99067.00;1650203;85;21255;-60
2020/12/31 06:12:55;;;;;;;11.37;6.47;;;;;;;8.14;83.40;99077.79;1653914;85;21587;-59
2020/12/31 06:15:25;;;;;;;13.55;6.70;;;;;;;8.15;83.37;99085.36;1653410;85;22233;-60
2020/12/31 06:17:52;;;;;;;10.93;6.20;;;;;;;8.14;83.37;99085.83;1653002;85;21207;-62
2020/12/31 06:20:22;;;;;;;9.45;6.85;;;;;;;8.16;83.34;99090.66;1653094;85;21642;-63
2020/12/31 06:23:00;;;;;;;9.13;6.15;;;;;;;8.17;83.30;99090.16;1653350;85;21195;-60
2020/12/31 06:25:39;;;;;;;15.08;8.28;;;;;;;8.18;83.23;99086.06;1653065;85;21627;-61
2020/12/31 06:28:22;;;;;;;13.72;9.60;;;;;;;8.17;83.12;99089.68;1655422;85;21124;-59
2020/12/31 06:30:54;;;;;;;15.08;7.62;;;;;;;8.16;83.09;99083.95;1658964;85;21499;-57
2020/12/31 06:33:33;;;;;;;10.35;6.95;;;;;;;8.16;83.05;99081.74;1656535;85;21203;-58
2020/12/31 06:36:03;;;;;;;13.03;7.45;;;;;;;8.15;83.03;99079.53;1650982;85;21167;-58
2020/12/31 06:38:37;;;;;;;9.48;6.58;;;;;;;8.13;82.99;99074.70;1653491;85;22293;-58
2020/12/31 06:44:20;;;;;;;15.60;8.00;;;;;;;8.16;83.01;99073.70;1826229;75;23234;-59
2020/12/31 06:46:47;;;;;;;;;;;;;;;8.12;83.01;99077.45;1799276;77;20992;-61
2020/12/31 06:49:15;;;;;;;11.55;8.08;;;;;;;8.10;83.06;99080.20;1802736;77;21141;-59
2020/12/31 06:51:42;;;;;;;16.80;7.58;;;;;;;8.08;83.08;99088.78;1797053;77;21057;-57
2020/12/31 06:54:11;;;;;;;15.05;7.90;;;;;;;8.09;83.12;99094.55;1796368;77;21497;-58
2020/12/31 06:56:49;;;;;;;14.00;6.33;;;;;;;8.09;83.16;99089.66;1794739;77;20995;-56
2020/12/31 06:59:38;;;;;;;10.30;6.47;;;;;;;8.08;83.21;99095.48;1790366;77;20968;-60
2020/12/31 07:02:21;;;;;;;13.32;6.70;;;;;;;8.11;83.23;99100.71;1796224;77;21243;-59
2020/12/31 07:04:48;;;;;;;9.93;6.40;;;;;;;8.12;83.24;99095.75;1796842;77;21389;-58
2020/12/31 07:07:25;;;;;;;9.58;7.40;;;;;;;8.14;83.25;99097.89;1789200;77;21230;-58
2020/12/31 07:09:57;;;;;;;15.05;8.60;;;;;;;8.15;83.26;99096.09;1778125;78;21195;-60
2020/12/31 07:12:39;;;;;;;10.82;7.15;;;;;;;8.15;83.32;99096.95;1776921;78;21122;-57
2020/12/31 07:15:09;;;;;;;12.35;7.28;;;;;;;8.14;83.33;99097.02;1781105;78;21186;-58
2020/12/31 07:17:40;;;;;;;11.05;7.17;;;;;;;8.14;83.37;99097.89;1777490;78;21163;-58
2020/12/31 07:20:10;;;;;;;9.58;5.37;;;;;;;8.16;83.41;99101.84;1772311;78;21209;-59
2020/12/31 07:22:39;;;;;;;12.50;6.85;;;;;;;8.15;83.44;99106.34;1775185;78;22645;-59
2020/12/31 07:25:16;;;;;;;8.50;5.78;;;;;;;8.15;83.53;99101.45;1774389;78;21138;-57
2020/12/31 07:27:47;;;;;;;12.63;6.55;;;;;;;8.16;83.53;99100.50;1775021;78;21222;-59
2020/12/31 07:30:17;;;;;;;12.00;6.78;;;;;;;8.17;83.53;99103.09;1780361;78;21598;-60
2020/12/31 07:33:05;;;;;;;12.60;7.10;;;;;;;8.17;83.58;99101.75;1748720;80;22349;-59
2020/12/31 07:35:49;;;;;;;11.30;7.30;;;;;;;8.18;83.58;99113.34;1743954;80;21181;-60
2020/12/31 07:38:17;;;;;;;10.28;6.47;;;;;;;8.16;83.58;99114.78;1723339;81;21139;-61
2020/12/31 07:40:50;;;;;;;11.20;7.17;;;;;;;8.17;83.57;99119.17;1779408;79;21559;-60
2020/12/31 07:43:25;;;;;;;9.63;5.58;;;;;;;8.20;83.54;99119.50;1779731;79;21442;-58
2020/12/31 07:45:53;;;;;;;;;;;;;;;8.19;83.55;99122.66;1785644;79;21121;-60
2020/12/31 07:48:22;;;;;;;9.33;5.35;;;;;;;8.21;83.54;99124.80;1774882;79;20294;-56
2020/12/31 07:50:55;;;;;;;13.70;6.83;;;;;;;8.23;83.54;99122.05;1771853;79;21167;-58
2020/12/31 07:53:22;;;;;;;10.65;6.45;;;;;;;8.23;83.51;99129.63;1792482;79;21195;-60
2020/12/31 07:55:51;;;;;;;12.95;6.85;;;;;;;8.24;83.53;99128.68;1778749;79;21183;-60
2020/12/31 07:58:25;;;;;;;13.30;8.20;;;;;;;8.24;83.56;99130.02;1777306;79;21178;-59
2020/12/31 08:01:04;;;;;;;13.95;6.78;;;;;;;8.25;83.53;99136.25;1774895;79;21884;-58
2020/12/31 08:03:32;;;;;;;8.53;5.78;;;;;;;8.27;83.50;99136.55;1775736;79;21182;-57
2020/12/31 08:06:02;;;;;;;10.00;6.65;;;;;;;8.28;83.42;99136.95;1780651;79;21370;-58
2020/12/31 08:08:30;;;;;;;8.05;6.70;;;;;;;8.29;83.39;99137.36;1773475;79;21190;-58
2020/12/31 08:10:57;;;;;;;9.93;6.30;;;;;;;8.30;83.39;99136.42;1773581;79;21464;-58
2020/12/31 08:13:24;;;;;;;10.93;7.10;;;;;;;8.31;83.35;99142.22;1773813;79;21182;-60
2020/12/31 08:15:53;;;;;;;10.43;7.55;;;;;;;8.32;83.33;99143.95;1772608;79;21162;-58
2020/12/31 08:18:23;;;;;;;15.18;8.38;;;;;;;8.31;83.31;99140.88;1774641;79;22107;-59
2020/12/31 08:20:54;;;;;;;14.85;8.08;;;;;;;8.32;83.28;99139.94;1776297;79;21032;-57
2020/12/31 08:23:32;;;;;;;10.50;8.48;;;;;;;8.32;83.18;99127.87;1743347;80;21125;-58
2020/12/31 08:25:59;;;;;;;10.05;7.08;;;;;;;8.34;83.17;99130.45;1727219;81;21260;-58
2020/12/31 08:28:27;;;;;;;8.53;6.35;;;;;;;8.34;83.18;99127.77;1748956;79;21179;-60
2020/12/31 08:30:54;;;;;;;10.20;6.87;;;;;;;8.35;83.17;99129.03;1778795;79;21849;-59
2020/12/31 08:33:23;;;;;;;13.72;7.47;;;;;;;8.35;83.19;99123.67;1780237;79;21149;-61
2020/12/31 08:35:51;;;;;;;16.52;8.33;;;;;;;8.37;83.18;99122.27;1776829;79;21107;-59
2020/12/31 08:38:21;;;;;;;15.55;10.32;;;;;;;8.38;83.21;99126.69;1776758;79;21171;-60
2020/12/31 08:40:56;;;;;;;17.95;10.55;;;;;;;8.39;83.22;99128.90;1776063;79;21490;-57
2020/12/31 08:43:40;;;;;;;14.07;8.63;;;;;;;8.38;83.24;99126.69;1772811;79;21610;-57
2020/12/31 08:46:19;;;;;;;13.73;9.27;;;;;;;8.38;83.30;99119.98;1767634;79;21193;-56
2020/12/31 08:48:53;;;;;;;16.42;9.23;;;;;;;8.39;83.34;99122.20;1748547;80;21892;-57
2020/12/31 08:51:20;;;;;;;;;;;;;;;8.40;83.41;99118.57;1769009;79;21084;-56
2020/12/31 08:53:59;;;;;;;16.10;8.38;;;;;;;8.41;83.45;99118.50;1768292;79;20568;-57
2020/12/31 08:56:30;;;;;;;13.65;9.83;;;;;;;8.41;83.46;99122.52;1768522;79;21354;-58
2020/12/31 08:59:14;;;;;;;18.60;9.70;;;;;;;8.41;83.45;99122.52;1747177;80;21257;-57
2020/12/31 09:01:46;;;;;;;15.18;9.75;;;;;;;8.40;83.51;99121.25;1750620;80;21209;-56
2020/12/31 09:04:19;;;;;;;12.33;7.92;;;;;;;8.39;83.60;99128.90;1724551;81;21206;-57
2020/12/31 09:06:52;;;;;;;15.88;9.00;;;;;;;8.41;83.63;99121.66;1763757;79;21207;-60
2020/12/31 09:09:28;;;;;;;16.27;8.40;;;;;;;8.42;83.65;99124.73;1755489;80;21192;-58
2020/12/31 09:11:58;;;;;;;15.08;8.33;;;;;;;8.42;83.65;99118.03;1723053;81;21169;-57
2020/12/31 09:14:25;;;;;;;14.00;7.37;;;;;;;8.42;83.72;99116.69;1750030;80;21125;-57
2020/12/31 09:16:52;;;;;;;13.32;7.87;;;;;;;8.44;83.78;99117.45;1768279;79;21099;-56
2020/12/31 09:19:20;;;;;;;13.95;9.18;;;;;;;8.46;83.81;99123.63;1766004;79;21485;-58
2020/12/31 09:21:47;;;;;;;11.20;7.70;;;;;;;8.45;83.81;99117.39;1770072;79;21247;-58
2020/12/31 09:24:20;;;;;;;13.68;7.45;;;;;;;8.44;83.82;99125.03;1764846;79;21048;-59
2020/12/31 09:26:58;;;;;;;12.07;7.35;;;;;;;8.43;83.82;99114.38;1764799;79;21625;-59
2020/12/31 09:29:27;;;;;;;8.98;7.08;;;;;;;8.43;83.86;99109.88;1747317;80;21227;-58
2020/12/31 09:31:54;;;;;;;13.30;6.40;;;;;;;8.43;83.95;99123.77;1749566;80;21178;-58
2020/12/31 09:34:22;;;;;;;9.05;6.00;;;;;;;8.45;83.99;99117.86;1747327;80;22690;-58
2020/12/31 09:36:49;;;;;;;11.00;6.00;;;;;;;8.46;84.03;99114.23;1751369;80;21196;-59
2020/12/31 09:39:16;;;;;;;13.05;7.55;;;;;;;8.47;84.07;99115.50;1751967;80;21184;-58
2020/12/31 09:41:46;;;;;;;12.40;6.03;;;;;;;8.49;84.08;99106.92;1755187;80;21473;-58
2020/12/31 09:44:14;;;;;;;11.35;6.37;;;;;;;8.49;84.12;99108.73;1719598;81;21154;-60
2020/12/31 09:46:41;;;;;;;10.85;6.42;;;;;;;8.51;84.15;99108.16;1718794;81;22265;-60
2020/12/31 09:49:09;;;;;;;9.65;5.85;;;;;;;8.51;84.14;99109.03;1756451;80;21181;-57
2020/12/31 09:51:36;;;;;;;7.25;5.12;;;;;;;8.55;84.18;99097.69;1713829;81;21477;-58
2020/12/31 09:54:05;;;;;;;8.73;6.20;;;;;;;8.57;84.16;99099.83;1715417;81;21219;-56
2020/12/31 09:56:32;;;;;;;8.80;5.00;;;;;;;8.57;84.15;99098.48;1717089;81;21633;-58
2020/12/31 09:58:59;;;;;;;8.48;4.97;;;;;;;8.58;84.19;99093.52;1726175;81;21216;-57
2020/12/31 10:01:26;;;;;;;11.73;5.45;;;;;;;8.61;84.23;99094.69;1731140;81;22086;-57
2020/12/31 10:03:54;;;;;;;9.33;5.47;;;;;;;8.63;84.23;99093.67;1753714;80;21524;-58
2020/12/31 10:06:21;;;;;;;7.65;5.87;;;;;;;8.64;84.14;99094.54;1752641;80;21204;-59
2020/12/31 10:08:51;;;;;;;12.58;7.20;;;;;;;8.63;84.09;99089.64;1752950;80;21638;-57
2020/12/31 10:11:19;;;;;;;14.90;6.42;;;;;;;8.64;84.07;99088.70;1715357;81;21391;-58
2020/12/31 10:13:46;;;;;;;11.28;5.87;;;;;;;8.66;84.08;99085.95;1721559;81;21742;-60
2020/12/31 10:16:13;;;;;;;8.20;4.42;;;;;;;8.66;84.09;99093.52;1719672;81;21114;-57
2020/12/31 10:18:40;;;;;;;7.05;4.45;;;;;;;8.66;84.11;99088.63;1715417;81;21769;-57
2020/12/31 10:23:41;;;;;;;5.37;3.77;;;;;;;8.73;84.12;99075.29;1835957;76;22587;-58
2020/12/31 10:26:08;;;;;;;7.87;5.35;;;;;;;8.68;84.12;99080.88;1798556;77;21234;-58
2020/12/31 10:28:36;;;;;;;6.15;4.40;;;;;;;8.67;84.14;99068.44;1803073;77;21554;-60
2020/12/31 10:31:03;;;;;;;4.75;3.17;;;;;;;8.67;84.15;99066.22;1740629;80;21147;-59
2020/12/31 10:33:30;;;;;;;3.50;3.20;;;;;;;8.68;84.16;99067.94;1801385;77;21227;-59
2020/12/31 10:35:57;;;;;;;6.30;3.27;;;;;;;8.68;84.17;99058.07;1806989;77;21164;-60
2020/12/31 10:38:25;;;;;;;5.37;3.67;;;;;;;8.69;84.16;99054.91;1806562;77;21064;-62
2020/12/31 10:40:52;;;;;;;4.72;3.50;;;;;;;8.71;84.14;99053.90;1804574;77;21238;-61
2020/12/31 10:43:19;;;;;;;4.75;3.52;;;;;;;8.71;84.19;99045.84;1801308;77;21516;-61
2020/12/31 10:45:46;;;;;;;4.90;3.75;;;;;;;8.75;84.19;99045.23;1812220;77;21596;-59
2020/12/31 10:48:13;;;;;;;8.95;4.33;;;;;;;8.77;84.20;99047.34;1746931;80;21195;-59
2020/12/31 10:50:40;;;;;;;5.15;4.53;;;;;;;8.77;84.18;99045.12;1804700;77;21175;-60
2020/12/31 10:53:08;;;;;;;5.42;4.15;;;;;;;8.77;84.16;99040.63;1800237;77;21378;-62
2020/12/31 10:55:36;;;;;;;6.08;4.10;;;;;;;8.78;84.17;99038.34;1802937;77;21180;-60
2020/12/31 10:58:04;;;;;;;9.50;3.67;;;;;;;8.78;84.15;99039.69;1801945;77;21123;-59
2020/12/31 11:00:32;;;;;;;5.75;3.30;;;;;;;8.79;84.18;99044.58;1804503;77;21199;-62
2020/12/31 11:02:59;;;;;;;5.50;2.70;;;;;;;8.78;84.19;99032.98;1801183;77;21812;-61
2020/12/31 11:05:26;;;;;;;5.75;2.85;;;;;;;8.80;84.16;99034.24;1803249;77;22363;-59
2020/12/31 11:07:53;;;;;;;3.40;2.92;;;;;;;8.80;84.18;99036.45;1732721;80;21203;-58
2020/12/31 11:10:20;;;;;;;5.12;3.40;;;;;;;8.79;84.16;99035.19;1743187;80;21706;-57
2020/12/31 11:12:48;;;;;;;5.03;3.58;;;;;;;8.76;84.18;99032.22;1806888;77;21940;-57
2020/12/31 11:15:15;;;;;;;5.85;3.33;;;;;;;8.78;84.22;99034.79;1805987;77;21152;-59
2020/12/31 11:17:43;;;;;;;4.80;3.05;;;;;;;8.80;84.25;99036.92;1801934;77;21642;-58
2020/12/31 11:20:10;;;;;;;6.45;4.08;;;;;;;8.80;84.27;99029.75;1801471;77;21210;-58
2020/12/31 11:22:37;;;;;;;4.42;3.05;;;;;;;8.82;84.30;99037.25;1810420;77;21168;-62
2020/12/31 11:25:04;;;;;;;4.87;3.25;;;;;;;8.83;84.31;99037.65;1822305;77;21556;-61
2020/12/31 11:27:31;;;;;;;3.42;2.40;;;;;;;8.85;84.31;99036.20;1822465;77;21480;-60
2020/12/31 11:29:59;;;;;;;6.95;4.25;;;;;;;8.88;84.30;99038.73;1828242;77;22579;-61
2020/12/31 11:32:26;;;;;;;5.05;4.60;;;;;;;8.89;84.31;99044.50;1836091;77;21159;-59
2020/12/31 11:34:54;;;;;;;4.40;3.85;;;;;;;8.88;84.29;99036.05;1826942;77;21609;-59
2020/12/31 11:37:21;;;;;;;5.22;3.50;;;;;;;8.86;84.24;99030.75;1825869;77;21436;-62
2020/12/31 11:39:48;;;;;;;5.60;3.75;;;;;;;8.88;84.24;99028.87;1826683;77;21619;-59
2020/12/31 11:42:15;;;;;;;5.22;3.60;;;;;;;8.88;84.23;99036.92;1825593;77;21627;-59
2020/12/31 11:44:42;;;;;;;3.40;2.95;;;;;;;8.88;84.25;99032.89;1820788;77;21250;-58
2020/12/31 11:49:51;;;;;;;4.80;3.07;;;;;;;8.91;84.29;99030.53;1873875;75;22295;-59
2020/12/31 11:52:18;;;;;;;4.42;3.35;;;;;;;8.88;84.30;99039.60;1840158;76;21008;-58
2020/12/31 11:54:46;;;;;;;7.00;4.78;;;;;;;8.86;84.31;99026.73;1842806;76;21348;-57
2020/12/31 11:57:13;;;;;;;7.28;4.92;;;;;;;8.83;84.32;99022.89;1806323;78;21439;-59
2020/12/31 11:59:40;;;;;;;6.92;4.17;;;;;;;8.83;84.31;99021.55;1777951;78;20998;-56
2020/12/31 12:02:08;;;;;;;6.65;4.65;;;;;;;8.82;84.31;99013.09;1806397;78;20952;-56
2020/12/31 12:04:36;;;;;;;5.03;3.25;;;;;;;8.81;84.33;99012.70;1811125;78;21605;-57